Time;durP1;ratioP1;P1;durP2;ratioP2;P2;SDS_P1;SDS_P2;PMS_P1;PMS_P2;Temp;Humidity;BMP_temperature;BMP_pressure;BME280_temperature;BME280_humidity;BME280_pressure;Samples;Min_cycle;Max_cycle;Signal;HPM_P1;HPM_P2
2023/02/09 00:01:04;;;;;;;27.40;10.70;;;;;;;-10.08;100.00;102359.01;107133;1273;26112;-67
2023/02/09 00:03:32;;;;;;;28.60;10.70;;;;;;;-10.09;100.00;102361.62;107175;1273;22787;-68
2023/02/09 00:06:01;;;;;;;33.50;10.80;;;;;;;-10.10;100.00;102358.30;106330;1274;1003073;-67
2023/02/09 00:08:29;;;;;;;27.10;10.10;;;;;;;-10.12;100.00;102361.77;107155;1273;25589;-68
2023/02/09 00:10:57;;;;;;;113.30;29.40;;;;;;;-10.14;100.00;102362.27;106406;1274;1002802;-67
2023/02/09 00:13:25;;;;;;;121.20;32.00;;;;;;;-10.16;100.00;102361.56;106262;1274;1003761;-68
2023/02/09 00:15:53;;;;;;;65.70;21.30;;;;;;;-10.18;100.00;102359.42;107079;1273;25548;-71
2023/02/09 00:18:23;;;;;;;66.60;20.00;;;;;;;-10.21;100.00;102360.79;107073;1273;26035;-67
2023/02/09 00:20:59;;;;;;;66.30;22.20;;;;;;;-10.24;100.00;102358.14;107146;1273;25899;-67
2023/02/09 00:23:27;;;;;;;54.50;20.10;;;;;;;-10.25;100.00;102354.13;107118;1273;26888;-68
2023/02/09 00:25:54;;;;;;;44.40;16.70;;;;;;;-10.25;100.00;102357.61;106338;1273;1003454;-65
2023/02/09 00:28:21;;;;;;;47.90;16.30;;;;;;;-10.25;100.00;102355.85;107189;1273;27934;-68
2023/02/09 00:30:50;;;;;;;33.30;12.60;;;;;;;-10.26;100.00;102348.18;107184;1273;24532;-68
2023/02/09 00:33:17;;;;;;;31.50;12.00;;;;;;;-10.26;100.00;102350.27;106383;1273;1002870;-67
2023/02/09 00:35:45;;;;;;;19.30;8.70;;;;;;;-10.25;100.00;102350.63;106102;1273;1003103;-68
2023/02/09 00:38:12;;;;;;;26.50;9.20;;;;;;;-10.27;100.00;102348.86;107181;1273;26982;-68
2023/02/09 00:40:40;;;;;;;27.30;10.00;;;;;;;-10.30;100.00;102352.84;107090;1273;25686;-68
2023/02/09 00:43:08;;;;;;;26.00;8.80;;;;;;;-10.31;100.00;102343.77;106313;1250;1003509;-69
2023/02/09 00:45:35;;;;;;;23.30;8.90;;;;;;;-10.32;100.00;102341.16;106398;1273;1002955;-67
2023/02/09 00:48:02;;;;;;;21.80;8.00;;;;;;;-10.37;100.00;102338.67;106360;1273;1002932;-68
2023/02/09 00:50:30;;;;;;;30.50;12.60;;;;;;;-10.38;100.00;102338.13;107144;1273;25689;-68
2023/02/09 00:52:57;;;;;;;24.40;10.10;;;;;;;-10.38;100.00;102338.30;107086;1273;25555;-66
2023/02/09 00:55:24;;;;;;;29.10;12.00;;;;;;;-10.37;100.00;102330.83;106365;1273;1003025;-67
2023/02/09 00:57:52;;;;;;;26.30;10.80;;;;;;;-10.36;100.00;102326.47;106231;1273;1003351;-68
2023/02/09 01:00:20;;;;;;;35.60;13.20;;;;;;;-10.35;100.00;102317.93;107124;1273;22645;-69
2023/02/09 01:02:48;;;;;;;28.30;10.80;;;;;;;-10.35;100.00;102318.63;106344;1273;1003615;-67
2023/02/09 01:05:15;;;;;;;24.90;10.80;;;;;;;-10.37;100.00;102319.67;107111;1273;25635;-68
2023/02/09 01:07:44;;;;;;;22.60;9.70;;;;;;;-10.38;100.00;102319.13;107158;1273;22728;-72
2023/02/09 01:10:11;;;;;;;22.10;8.60;;;;;;;-10.40;100.00;102324.67;107104;1273;24054;-67
2023/02/09 01:12:42;;;;;;;21.10;9.00;;;;;;;-10.40;100.00;102322.24;106454;1273;1002464;-69
2023/02/09 01:15:10;;;;;;;22.30;9.00;;;;;;;-10.39;100.00;102326.77;107112;1273;25753;-67
2023/02/09 01:17:46;;;;;;;19.10;8.00;;;;;;;-10.39;100.00;102328.18;107106;1273;24463;-68
2023/02/09 01:20:13;;;;;;;20.70;9.20;;;;;;;-10.40;100.00;102325.91;107096;1273;25683;-68
2023/02/09 01:22:41;;;;;;;23.40;9.00;;;;;;;-10.41;100.00;102326.23;106366;1273;1002844;-68
2023/02/09 01:25:09;;;;;;;20.30;8.50;;;;;;;-10.43;100.00;102326.05;107104;1273;25608;-68
2023/02/09 01:27:36;;;;;;;18.70;8.60;;;;;;;-10.45;100.00;102324.80;106378;1273;1003532;-68
2023/02/09 01:30:04;;;;;;;20.80;9.60;;;;;;;-10.47;100.00;102320.59;106281;1274;1003624;-67
2023/02/09 01:32:31;;;;;;;21.50;9.60;;;;;;;-10.50;100.00;102320.20;107110;1273;24357;-67
2023/02/09 01:34:59;;;;;;;21.20;8.40;;;;;;;-10.54;100.00;102323.48;106369;1273;1002741;-67
2023/02/09 01:37:26;;;;;;;15.70;7.80;;;;;;;-10.54;100.00;102325.39;107150;1273;25687;-68
2023/02/09 01:39:54;;;;;;;20.50;9.20;;;;;;;-10.54;100.00;102328.71;106395;1273;1002988;-67
2023/02/09 01:42:21;;;;;;;18.60;8.30;;;;;;;-10.54;100.00;102331.84;106245;1274;1002465;-68
2023/02/09 01:44:48;;;;;;;22.00;8.60;;;;;;;-10.54;100.00;102329.57;107183;1273;25482;-68
2023/02/09 01:47:17;;;;;;;22.80;9.30;;;;;;;-10.52;100.00;102328.38;107034;1274;22724;-67
2023/02/09 01:49:45;;;;;;;21.90;9.10;;;;;;;-10.52;100.00;102325.60;107175;1273;25529;-68
2023/02/09 01:52:24;;;;;;;19.80;8.80;;;;;;;-10.51;100.00;102329.44;107000;1273;22569;-69
2023/02/09 01:55:02;;;;;;;19.60;7.90;;;;;;;-10.52;100.00;102323.33;106392;1273;1003776;-70
2023/02/09 01:57:41;;;;;;;20.40;8.80;;;;;;;-10.52;100.00;102321.56;106462;1251;1003033;-68
2023/02/09 02:00:12;;;;;;;21.00;7.90;;;;;;;-10.55;100.00;102316.83;106356;1274;1003446;-67
2023/02/09 02:02:47;;;;;;;20.10;8.60;;;;;;;-10.57;100.00;102312.45;107133;1273;26731;-68
2023/02/09 02:05:14;;;;;;;25.60;9.40;;;;;;;-10.58;100.00;102317.33;106462;1273;1002561;-68
2023/02/09 02:07:53;;;;;;;18.80;8.20;;;;;;;-10.59;100.00;102318.01;107125;1273;25553;-67
2023/02/09 02:10:21;;;;;;;21.60;9.10;;;;;;;-10.61;100.00;102321.12;106308;1273;1002938;-67
2023/02/09 02:12:51;;;;;;;22.60;8.80;;;;;;;-10.62;100.00;102318.83;106301;1274;1003315;-68
2023/02/09 02:15:18;;;;;;;19.80;8.20;;;;;;;-10.67;100.00;102329.23;106452;1273;1003252;-68
2023/02/09 06:17:47;;;;;;;68.70;27.40;;;;;;;-11.30;100.00;101828.77;104248;1304;1003864;-70
2023/02/09 06:20:16;;;;;;;73.40;25.90;;;;;;;-11.04;100.00;101808.42;106232;1287;282373;-69
2023/02/09 06:22:45;;;;;;;59.00;25.00;;;;;;;-10.97;100.00;101833.90;105772;1287;1003477;-70
2023/02/09 06:25:14;;;;;;;55.40;28.20;;;;;;;-10.90;100.00;101853.11;105820;1287;1002929;-66
2023/02/09 06:27:43;;;;;;;62.40;28.60;;;;;;;-10.81;100.00;101870.41;106100;1287;1003415;-69
2023/02/09 06:30:12;;;;;;;59.40;26.30;;;;;;;-10.72;100.00;101886.50;106659;1285;1003334;-70
2023/02/09 06:32:41;;;;;;;63.80;29.80;;;;;;;-10.59;100.00;101897.55;106851;1285;26071;-71
2023/02/09 06:35:10;;;;;;;51.20;25.10;;;;;;;-10.44;100.00;101913.48;106257;1288;22613;-68
2023/02/09 06:37:38;;;;;;;51.00;23.60;;;;;;;-10.30;100.00;101918.61;106344;1288;24190;-68
2023/02/09 06:40:07;;;;;;;56.00;23.50;;;;;;;-10.14;100.00;101927.56;107026;1254;25549;-67
2023/02/09 06:42:45;;;;;;;46.10;22.30;;;;;;;-9.94;100.00;101937.58;107931;1276;22556;-68
2023/02/09 06:45:15;;;;;;;44.60;20.70;;;;;;;-9.71;100.00;101942.53;107388;1272;23102;-72
2023/02/09 06:47:44;;;;;;;38.90;19.40;;;;;;;-9.47;100.00;101937.52;107034;1276;22627;-69
2023/02/09 06:50:14;;;;;;;45.50;20.00;;;;;;;-9.22;100.00;101934.42;106889;1276;24209;-67
2023/02/09 06:52:44;;;;;;;58.40;26.50;;;;;;;-8.97;100.00;101931.44;107156;1276;25421;-68
2023/02/09 06:55:13;;;;;;;47.80;23.00;;;;;;;-8.72;100.00;101926.88;107019;1276;26156;-68
2023/02/09 06:57:42;;;;;;;54.70;26.00;;;;;;;-8.46;100.00;101926.10;106986;1276;25555;-67
2023/02/09 07:00:12;;;;;;;32.60;16.40;;;;;;;-8.17;100.00;101921.98;106965;1276;25507;-69
2023/02/09 07:02:44;;;;;;;38.40;14.90;;;;;;;-7.88;100.00;101915.02;106940;1276;22597;-68
2023/02/09 07:05:14;;;;;;;29.30;12.00;;;;;;;-7.62;100.00;101913.83;107021;1276;25434;-67
2023/02/09 07:07:43;;;;;;;33.40;16.10;;;;;;;-7.39;100.00;101915.95;107045;1276;22654;-68
2023/02/09 07:10:13;;;;;;;31.10;14.00;;;;;;;-7.17;100.00;101919.48;106182;1276;1016157;-67
2023/02/09 07:12:42;;;;;;;29.30;11.70;;;;;;;-6.95;100.00;101919.29;106991;1275;22623;-67
2023/02/09 07:15:12;;;;;;;27.60;11.80;;;;;;;-6.72;100.00;101920.84;106811;1276;24246;-68
2023/02/09 07:17:43;;;;;;;22.50;10.30;;;;;;;-6.57;100.00;101928.23;107042;1273;22566;-68
2023/02/09 07:20:12;;;;;;;22.40;9.70;;;;;;;-6.50;100.00;101941.32;106870;1276;25446;-68
2023/02/09 07:22:40;;;;;;;25.70;10.50;;;;;;;-6.44;100.00;101953.36;106179;1276;1003396;-68
2023/02/09 07:25:09;;;;;;;28.70;11.20;;;;;;;-6.36;100.00;101966.44;106330;1276;1002985;-69
2023/02/09 07:27:43;;;;;;;32.70;10.60;;;;;;;-6.17;100.00;101969.76;106264;1276;1003230;-67
2023/02/09 07:30:14;;;;;;;26.60;11.50;;;;;;;-5.99;100.00;101977.09;106980;1276;25478;-69
2023/02/09 07:32:42;;;;;;;28.00;11.90;;;;;;;-5.84;100.00;101988.31;106302;1276;1003285;-70
2023/02/09 07:35:11;;;;;;;38.10;16.40;;;;;;;-5.68;100.00;101997.94;107004;1276;24326;-70
2023/02/09 07:37:39;;;;;;;37.70;16.00;;;;;;;-5.46;100.00;101994.84;106261;1276;1003397;-68
2023/02/09 07:40:08;;;;;;;31.90;14.20;;;;;;;-5.24;100.00;101989.97;106967;1276;26835;-66
2023/02/09 07:42:37;;;;;;;33.50;12.90;;;;;;;-5.07;100.00;101993.77;106873;1276;22518;-67
2023/02/09 07:45:08;;;;;;;28.50;12.10;;;;;;;-4.96;100.00;102006.27;105900;1276;1002967;-68
2023/02/09 07:47:37;;;;;;;25.40;11.10;;;;;;;-4.86;100.00;102017.89;106742;1276;1003286;-68
2023/02/09 07:50:06;;;;;;;35.60;17.60;;;;;;;-4.74;100.00;102025.63;107004;1276;22484;-68
2023/02/09 07:52:34;;;;;;;28.80;13.40;;;;;;;-4.66;100.00;102031.82;106245;1276;1003496;-67
2023/02/09 07:55:04;;;;;;;31.20;14.10;;;;;;;-4.52;100.00;102045.67;106799;1276;22599;-66
2023/02/09 07:57:32;;;;;;;25.90;11.70;;;;;;;-4.37;100.00;102051.42;106077;1276;1003507;-66
2023/02/09 08:00:03;;;;;;;27.60;11.00;;;;;;;-4.19;100.00;102045.30;107262;1276;1002798;-76
2023/02/09 08:02:35;;;;;;;27.10;11.50;;;;;;;-4.02;100.00;102044.09;107047;1276;1002931;-74
2023/02/09 08:05:06;;;;;;;39.00;15.00;;;;;;;-3.89;100.00;102052.31;106640;1276;1002600;-70
2023/02/09 08:07:35;;;;;;;39.20;16.70;;;;;;;-3.76;100.00;102054.87;106579;1276;1003056;-70
2023/02/09 08:10:04;;;;;;;36.20;13.30;;;;;;;-3.72;100.00;102066.80;107038;1276;25844;-69
2023/02/09 08:15:21;;;;;;;23.90;10.70;;;;;;;-3.41;100.00;102043.95;106930;1277;25667;-70
2023/02/09 08:17:51;;;;;;;69.50;21.70;;;;;;;-3.21;100.00;102040.85;106967;1276;25465;-70
2023/02/09 08:20:26;;;;;;;47.10;17.60;;;;;;;-3.16;100.00;102043.23;107466;1276;23605;-77
2023/02/09 08:23:10;;;;;;;47.30;18.40;;;;;;;-3.13;100.00;102043.35;108253;1270;22536;-75
2023/02/09 08:25:40;;;;;;;48.90;21.90;;;;;;;-3.20;100.00;102037.67;108092;1275;25430;-75
2023/02/09 08:28:10;;;;;;;60.40;25.20;;;;;;;-3.25;100.00;102044.48;106289;1272;1002671;-70
2023/02/09 08:30:39;;;;;;;54.90;22.80;;;;;;;-3.12;100.00;102047.02;106048;1275;1003702;-68
2023/02/09 08:33:15;;;;;;;36.80;16.70;;;;;;;-3.02;100.00;102053.86;106920;1269;22479;-69
2023/02/09 08:35:44;;;;;;;53.60;21.50;;;;;;;-2.99;100.00;102066.52;106031;1269;1003342;-69
2023/02/09 08:38:14;;;;;;;36.80;16.40;;;;;;;-2.92;100.00;102070.23;106327;1277;1003680;-69
2023/02/09 08:40:52;;;;;;;27.70;12.40;;;;;;;-2.90;100.00;102085.34;106175;1270;1003084;-70
2023/02/09 08:43:31;;;;;;;36.20;17.50;;;;;;;-2.77;100.00;102091.23;106622;1276;22538;-68
2023/02/09 08:46:05;;;;;;;30.70;13.90;;;;;;;-2.61;100.00;102088.23;105952;1260;1002910;-71
2023/02/09 08:48:44;;;;;;;33.30;14.00;;;;;;;-2.46;100.00;102097.23;106927;1276;25495;-71
2023/02/09 08:51:17;;;;;;;36.50;15.40;;;;;;;-2.50;100.00;102109.14;106221;1276;1003722;-70
2023/02/09 08:53:50;;;;;;;42.10;18.60;;;;;;;-2.43;100.00;102114.46;106639;1276;1002879;-68
2023/02/09 08:56:23;;;;;;;38.30;17.80;;;;;;;-2.38;100.00;102117.88;107792;1276;25470;-70
2023/02/09 08:58:54;;;;;;;38.90;18.30;;;;;;;-2.47;100.00;102131.70;106176;1273;1002973;-69
2023/02/09 09:01:24;;;;;;;76.20;31.10;;;;;;;-2.46;100.00;102137.15;107348;1275;26542;-75
2023/02/09 09:03:55;;;;;;;53.50;24.40;;;;;;;-2.40;100.00;102128.00;106705;1272;1003095;-74
2023/02/09 09:06:25;;;;;;;99.60;52.90;;;;;;;-2.26;100.00;102118.65;106646;1270;1002847;-74
2023/02/09 09:08:54;;;;;;;54.80;28.40;;;;;;;-2.07;100.00;102109.87;107449;1269;22530;-77
2023/02/09 09:11:23;;;;;;;48.20;20.70;;;;;;;-2.07;100.00;102112.34;106392;1276;1002677;-71
2023/02/09 09:13:51;;;;;;;45.30;19.90;;;;;;;-2.16;100.00;102119.45;107658;1270;25429;-69
2023/02/09 09:16:24;;;;;;;46.00;20.60;;;;;;;-2.08;100.00;102108.30;106542;1275;1003742;-71
2023/02/09 09:18:52;;;;;;;50.20;23.00;;;;;;;-1.98;100.00;102095.64;107353;1277;24296;-69
2023/02/09 09:21:21;;;;;;;42.30;18.00;;;;;;;-1.74;100.00;102079.84;106977;1276;22932;-69
2023/02/09 09:23:57;;;;;;;42.90;18.00;;;;;;;-1.59;100.00;102074.46;106543;1273;1002582;-73
2023/02/09 09:26:26;;;;;;;35.00;16.70;;;;;;;-1.57;100.00;102075.27;107079;1278;25960;-71
2023/02/09 09:28:55;;;;;;;31.40;14.90;;;;;;;-1.58;100.00;102087.70;106360;1278;1002720;-73
2023/02/09 09:31:23;;;;;;;40.90;21.10;;;;;;;-1.47;100.00;102083.14;106850;1278;1003269;-75
2023/02/09 09:33:54;;;;;;;43.40;22.90;;;;;;;-1.41;100.00;102085.10;107115;1278;25313;-72
2023/02/09 09:36:23;;;;;;;37.30;17.20;;;;;;;-1.39;100.00;102085.91;107065;1277;1003144;-73
2023/02/09 09:38:52;;;;;;;37.40;19.10;;;;;;;-1.38;100.00;102088.01;106712;1278;1003358;-76
2023/02/09 09:41:25;;;;;;;65.00;33.00;;;;;;;-1.43;100.00;102093.81;107580;1270;22519;-74
2023/02/09 09:43:54;;;;;;;50.10;24.90;;;;;;;-1.48;100.00;102099.98;105834;1278;1003685;-68
2023/02/09 09:46:32;;;;;;;53.40;25.50;;;;;;;-1.37;100.00;102091.00;107254;1270;22996;-76
2023/02/09 09:49:03;;;;;;;58.40;27.70;;;;;;;-1.12;100.00;102071.69;107757;1279;26498;-78
2023/02/09 09:51:34;;;;;;;56.10;26.80;;;;;;;-0.81;100.00;102050.17;107613;1279;22523;-75
2023/02/09 09:54:05;;;;;;;35.10;17.00;;;;;;;-0.59;100.00;102047.73;106663;1278;1003338;-78
2023/02/09 09:56:34;;;;;;;39.20;18.70;;;;;;;-0.63;100.00;102059.88;107429;1269;1003024;-76
2023/02/09 09:59:03;;;;;;;37.40;19.70;;;;;;;-0.74;100.00;102066.98;106840;1272;1002876;-69
2023/02/09 10:01:32;;;;;;;34.00;14.70;;;;;;;-0.78;100.00;102076.14;106075;1271;1002932;-64
2023/02/09 10:04:13;;;;;;;76.20;43.80;;;;;;;-0.87;100.00;102082.98;106839;1274;24350;-69
2023/02/09 10:06:43;;;;;;;56.60;30.30;;;;;;;-0.84;100.00;102080.92;106086;1273;1003030;-67
2023/02/09 10:09:41;;;;;;;33.70;18.70;;;;;;;-0.70;100.00;102071.81;106880;1270;23860;-67
2023/02/09 10:12:28;;;;;;;68.70;33.80;;;;;;;-0.49;100.00;102057.67;106453;1270;1003384;-71
2023/02/09 10:15:36;;;;;;;39.00;21.20;;;;;;;-0.46;100.00;102061.29;107604;1277;22545;-66
2023/02/09 10:18:24;;;;;;;43.50;25.10;;;;;;;-0.54;100.00;102059.98;105855;1278;1002949;-67
2023/02/09 10:20:55;;;;;;;34.20;16.00;;;;;;;-0.48;100.00;102056.59;107037;1273;26528;-68
2023/02/09 10:23:25;;;;;;;35.70;18.20;;;;;;;-0.34;100.00;102045.84;106993;1276;28405;-68
2023/02/09 10:26:23;;;;;;;28.50;13.80;;;;;;;-0.26;100.00;102042.17;107488;1278;25387;-75
2023/02/09 10:29:19;;;;;;;29.10;15.20;;;;;;;-0.25;100.00;102041.27;107399;1271;26648;-69
2023/02/09 10:32:05;;;;;;;29.80;13.70;;;;;;;-0.17;100.00;102044.20;106805;1278;25306;-66
2023/02/09 10:34:39;;;;;;;26.30;12.90;;;;;;;-0.08;100.00;102041.73;106800;1272;23792;-75
2023/02/09 10:37:16;;;;;;;52.70;27.50;;;;;;;-0.12;100.00;102045.08;107221;1271;22767;-73
2023/02/09 10:39:46;;;;;;;35.40;16.20;;;;;;;-0.06;100.00;102039.03;106773;1277;1003558;-66
2023/02/09 10:42:21;;;;;;;38.00;18.60;;;;;;;0.07;100.00;102033.23;106887;1275;22549;-75
2023/02/09 10:44:52;;;;;;;42.20;22.10;;;;;;;0.08;100.00;102033.57;107155;1278;22526;-66
2023/02/09 10:47:23;;;;;;;47.20;26.40;;;;;;;0.06;100.00;102032.56;106030;1278;1003836;-66
2023/02/09 10:50:11;;;;;;;33.90;18.80;;;;;;;0.07;100.00;102032.73;106874;1278;25313;-66
2023/02/09 10:53:02;;;;;;;55.50;30.60;;;;;;;-0.05;100.00;102027.61;106171;1278;1003183;-68
2023/02/09 10:55:36;;;;;;;38.90;21.20;;;;;;;-0.10;100.00;102027.81;106855;1278;23377;-68
2023/02/09 10:58:08;;;;;;;40.10;23.50;;;;;;;-0.12;100.00;102025.23;107115;1270;25383;-67
2023/02/09 11:00:40;;;;;;;47.10;27.50;;;;;;;-0.19;100.00;102021.76;107002;1271;26668;-70
2023/02/09 11:03:20;;;;;;;50.20;28.10;;;;;;;-0.30;100.00;102014.34;106175;1270;1003224;-67
2023/02/09 11:05:58;;;;;;;40.80;19.10;;;;;;;-0.39;100.00;102007.19;106287;1272;1003617;-75
2023/02/09 11:08:34;;;;;;;46.10;25.20;;;;;;;-0.47;100.00;102003.91;107800;1275;22585;-73
2023/02/09 11:11:32;;;;;;;48.00;26.40;;;;;;;-0.45;100.00;101999.09;107215;1273;22784;-68
2023/02/09 11:14:03;;;;;;;71.30;40.30;;;;;;;-0.44;100.00;101992.62;108511;1272;22703;-76
2023/02/09 11:16:49;;;;;;;70.70;37.80;;;;;;;-0.34;100.00;101992.67;107332;1276;1002606;-74
2023/02/09 11:19:45;;;;;;;60.80;33.50;;;;;;;-0.31;100.00;101993.80;107830;1273;22528;-74
2023/02/09 11:22:42;;;;;;;57.10;34.20;;;;;;;-0.30;100.00;101987.02;107961;1270;22641;-75
2023/02/09 11:25:31;;;;;;;33.00;18.30;;;;;;;-0.26;100.00;101982.99;107591;1276;22606;-67
2023/02/09 11:28:57;;;;;;;34.70;19.30;;;;;;;-0.38;100.00;101983.05;106914;1276;25846;-67
2023/02/09 11:32:06;;;;;;;71.80;36.00;;;;;;;-0.40;100.00;101982.77;105688;1283;1002714;-65
2023/02/09 11:34:59;;;;;;;31.80;16.70;;;;;;;-0.33;100.00;101968.34;106451;1283;25436;-71
2023/02/09 11:37:39;;;;;;;25.70;12.20;;;;;;;-0.24;100.00;101963.77;106531;1272;1003143;-74
2023/02/09 11:40:26;;;;;;;31.10;15.40;;;;;;;-0.15;100.00;101956.20;107893;1276;23670;-74
2023/02/09 11:43:09;;;;;;;55.60;28.40;;;;;;;-0.09;100.00;101952.96;107148;1276;1003740;-75
2023/02/09 11:45:46;;;;;;;34.90;18.60;;;;;;;-0.15;100.00;101957.80;107784;1276;22539;-77
2023/02/09 11:48:39;;;;;;;23.90;11.40;;;;;;;-0.14;100.00;101954.38;107123;1276;1003427;-72
2023/02/09 11:51:18;;;;;;;23.90;10.50;;;;;;;-0.21;100.00;101951.26;107920;1276;23262;-74
2023/02/09 11:54:02;;;;;;;22.30;11.50;;;;;;;-0.34;100.00;101953.14;106788;1276;1002841;-70
2023/02/09 11:56:38;;;;;;;42.60;25.60;;;;;;;-0.48;100.00;101956.13;107204;1276;22789;-71
2023/02/09 11:59:16;;;;;;;32.10;16.70;;;;;;;-0.58;100.00;101960.34;106975;1270;22534;-70
2023/02/09 12:02:02;;;;;;;22.50;10.70;;;;;;;-0.67;100.00;101958.89;107004;1270;23124;-69
2023/02/09 12:04:44;;;;;;;20.30;9.70;;;;;;;-0.78;100.00;101960.83;106308;1269;1002859;-71
2023/02/09 12:07:26;;;;;;;19.00;8.90;;;;;;;-0.88;100.00;101960.09;107002;1269;25473;-71
2023/02/09 12:10:14;;;;;;;21.60;9.40;;;;;;;-1.01;100.00;101954.15;106210;1270;1003216;-72
2023/02/09 12:12:47;;;;;;;21.30;9.80;;;;;;;-1.18;100.00;101957.88;106203;1276;1003009;-70
2023/02/09 12:15:18;;;;;;;22.00;9.60;;;;;;;-1.30;100.00;101955.96;107057;1276;26508;-71
2023/02/09 12:18:11;;;;;;;23.30;9.50;;;;;;;-1.36;100.00;101952.08;106942;1270;1002449;-74
2023/02/09 12:20:51;;;;;;;22.70;9.90;;;;;;;-1.24;100.00;101943.39;107552;1276;23334;-72
2023/02/09 12:23:31;;;;;;;24.10;11.20;;;;;;;-0.99;100.00;101931.60;106552;1276;1003384;-70
2023/02/09 12:26:10;;;;;;;24.20;11.90;;;;;;;-0.64;100.00;101916.98;106263;1270;1002437;-69
2023/02/09 12:28:48;;;;;;;25.50;12.60;;;;;;;-0.43;100.00;101918.36;106888;1276;24219;-70
2023/02/09 12:31:17;;;;;;;30.00;14.20;;;;;;;-0.43;100.00;101918.55;106066;1254;1003680;-69
2023/02/09 12:33:46;;;;;;;30.60;13.70;;;;;;;-0.45;100.00;101922.88;106932;1277;25250;-68
2023/02/09 12:36:15;;;;;;;39.20;17.20;;;;;;;-0.49;100.00;101919.48;106927;1277;23351;-67
2023/02/09 12:38:49;;;;;;;44.90;25.50;;;;;;;-0.45;100.00;101913.81;106357;1277;1003691;-69
2023/02/09 12:41:28;;;;;;;59.40;26.60;;;;;;;-0.27;100.00;101911.96;106352;1277;1003439;-67
2023/02/09 12:44:09;;;;;;;61.50;35.90;;;;;;;0.01;100.00;101903.69;106892;1277;25300;-66
2023/02/09 12:46:45;;;;;;;26.80;13.60;;;;;;;0.28;100.00;101893.61;106986;1277;22567;-67
2023/02/09 12:49:14;;;;;;;17.60;8.30;;;;;;;0.31;100.00;101899.31;106287;1277;1003351;-68
2023/02/09 12:51:49;;;;;;;27.30;14.90;;;;;;;0.26;100.00;101903.78;106834;1276;25475;-67
2023/02/09 12:54:41;;;;;;;23.10;10.70;;;;;;;0.38;100.00;101905.97;106901;1276;25444;-67
2023/02/09 12:57:16;;;;;;;25.70;11.30;;;;;;;0.80;100.00;101894.55;106296;1276;1003014;-68
2023/02/09 12:59:54;;;;;;;42.30;20.90;;;;;;;1.04;100.00;101889.81;106399;1276;1003577;-69
2023/02/09 13:02:38;;;;;;;43.60;21.50;;;;;;;1.29;100.00;101893.58;107069;1276;25297;-67
2023/02/09 13:05:18;;;;;;;27.30;15.10;;;;;;;1.53;100.00;101891.82;106998;1276;23778;-69
2023/02/09 13:07:59;;;;;;;35.30;19.20;;;;;;;1.59;100.00;101894.73;106142;1270;1003298;-68
2023/02/09 13:10:30;;;;;;;33.40;15.70;;;;;;;1.61;100.00;101900.19;107110;1276;25436;-68
2023/02/09 13:13:06;;;;;;;35.10;19.50;;;;;;;1.57;100.00;101900.73;106944;1276;25433;-69
2023/02/09 13:16:04;;;;;;;34.70;18.90;;;;;;;1.44;100.00;101903.23;106727;1276;25958;-69
2023/02/09 13:18:51;;;;;;;34.20;17.40;;;;;;;1.30;100.00;101906.48;107125;1276;25436;-70
2023/02/09 13:21:29;;;;;;;67.50;30.10;;;;;;;1.35;100.00;101912.67;107148;1276;22684;-68
2023/02/09 13:23:59;;;;;;;48.60;26.80;;;;;;;1.44;100.00;101913.72;107076;1276;25437;-70
2023/02/09 13:26:31;;;;;;;34.70;17.50;;;;;;;1.56;100.00;101914.64;106805;1276;27559;-72
2023/02/09 13:29:11;;;;;;;24.90;13.10;;;;;;;1.55;100.00;101908.63;106787;1276;1003389;-72
2023/02/09 13:32:00;;;;;;;31.30;16.40;;;;;;;1.37;100.00;101903.69;107311;1276;23002;-72
2023/02/09 13:34:29;;;;;;;36.70;19.80;;;;;;;1.25;100.00;101905.45;107328;1276;25466;-72
2023/02/09 13:37:17;;;;;;;43.30;21.40;;;;;;;1.21;100.00;101907.77;106654;1270;1003770;-72
2023/02/09 13:39:56;;;;;;;47.90;23.90;;;;;;;1.09;100.00;101909.49;106615;1276;1002959;-71
2023/02/09 13:42:26;;;;;;;47.80;26.80;;;;;;;0.98;100.00;101910.16;107367;1276;23116;-72
2023/02/09 13:44:56;;;;;;;26.00;15.50;;;;;;;0.83;100.00;101918.04;107281;1276;24186;-70
2023/02/09 13:47:25;;;;;;;31.30;16.90;;;;;;;0.47;100.00;101925.48;108142;1276;24257;-70
2023/02/09 13:50:10;;;;;;;28.00;13.70;;;;;;;0.12;100.00;101928.08;107354;1276;1003199;-74
2023/02/09 13:52:41;;;;;;;36.00;18.80;;;;;;;-0.31;100.00;101938.67;107495;1276;25446;-72
2023/02/09 13:55:39;;;;;;;33.60;19.60;;;;;;;-0.52;100.00;101944.21;106745;1276;1003671;-70
2023/02/09 13:58:10;;;;;;;28.50;17.30;;;;;;;-0.62;100.00;101945.43;107111;1276;22471;-69
2023/02/09 14:00:40;;;;;;;30.80;18.50;;;;;;;-0.79;100.00;101943.86;107226;1257;24251;-68
2023/02/09 14:03:18;;;;;;;40.00;29.90;;;;;;;-0.95;100.00;101945.29;107343;1276;23213;-68
2023/02/09 14:22:44;;;;;;;33.90;22.40;;;;;;;-1.84;100.00;101929.31;103790;1297;1002418;-67
2023/02/09 14:25:13;;;;;;;38.40;19.90;;;;;;;-2.27;100.00;101915.48;104947;1288;1003418;-68
2023/02/09 14:27:46;;;;;;;61.40;28.60;;;;;;;-2.53;100.00;101923.27;105406;1288;1003720;-68
2023/02/09 14:30:24;;;;;;;127.50;48.10;;;;;;;-2.76;100.00;101924.38;106087;1288;22536;-68
2023/02/09 14:32:54;;;;;;;114.80;47.10;;;;;;;-2.98;100.00;101921.77;106225;1288;22572;-67
2023/02/09 14:35:27;;;;;;;107.50;45.50;;;;;;;-3.19;100.00;101923.86;106254;1288;26548;-67
2023/02/09 14:37:57;;;;;;;;;;;;;;;-3.38;100.00;101922.02;105390;1288;1003408;-68
2023/02/09 14:40:25;;;;;;;75.50;34.60;;;;;;;-3.54;100.00;101922.56;106195;1288;22674;-69
2023/02/09 14:43:09;;;;;;;61.00;29.30;;;;;;;-3.69;100.00;101921.83;105833;1285;1002962;-66
2023/02/09 14:45:43;;;;;;;81.80;43.80;;;;;;;-3.83;100.00;101922.86;106943;1277;25344;-67
2023/02/09 14:48:25;;;;;;;87.50;49.80;;;;;;;-3.96;100.00;101920.83;107094;1277;25425;-67
2023/02/09 14:50:59;;;;;;;50.90;27.80;;;;;;;-4.10;100.00;101919.52;106542;1277;1003410;-67
2023/02/09 14:53:31;;;;;;;60.80;32.10;;;;;;;-4.23;100.00;101915.20;106125;1277;1003680;-68
2023/02/09 14:56:00;;;;;;;59.60;29.20;;;;;;;-4.34;100.00;101916.13;106269;1277;1002911;-65
2023/02/09 14:58:30;;;;;;;47.60;24.90;;;;;;;-4.44;100.00;101916.51;106206;1271;1016284;-65
2023/02/09 15:01:00;;;;;;;48.60;27.00;;;;;;;-4.55;100.00;101910.37;106010;1279;1003807;-66
2023/02/09 15:03:29;;;;;;;124.50;44.30;;;;;;;-4.65;100.00;101904.55;106077;1279;1003766;-67
2023/02/09 15:06:02;;;;;;;104.40;42.70;;;;;;;-4.73;100.00;101891.34;106766;1279;22855;-71
2023/02/09 15:08:33;;;;;;;106.00;43.30;;;;;;;-4.82;100.00;101888.33;106163;1279;1003249;-71
2023/02/09 15:12:03;;;;;;;49.80;27.10;;;;;;;-4.90;100.00;101889.00;106013;1279;1003458;-71
2023/02/09 15:14:01;;;;;;;40.50;21.10;;;;;;;-4.97;100.00;101882.42;106113;1279;1003530;-71
2023/02/09 15:16:30;;;;;;;38.80;20.50;;;;;;;-5.02;100.00;101877.60;106812;1279;22555;-72
2023/02/09 15:18:59;;;;;;;37.50;18.50;;;;;;;-5.05;100.00;101873.27;106205;1279;1003204;-72
2023/02/09 15:21:29;;;;;;;39.20;17.40;;;;;;;-5.08;100.00;101868.21;106163;1278;1003726;-72
2023/02/09 15:23:58;;;;;;;39.30;19.40;;;;;;;-5.11;100.00;101865.61;106013;1279;1003439;-71
2023/02/09 15:26:27;;;;;;;40.80;18.60;;;;;;;-5.14;100.00;101866.71;105905;1279;1002901;-70
2023/02/09 15:28:56;;;;;;;33.30;15.90;;;;;;;-5.17;100.00;101859.39;106601;1279;25720;-70
2023/02/09 15:31:27;;;;;;;38.70;20.30;;;;;;;-5.20;100.00;101861.20;106964;1279;26496;-69
2023/02/09 15:33:56;;;;;;;31.00;16.80;;;;;;;-5.25;100.00;101857.23;107578;1279;22506;-71
2023/02/09 15:36:26;;;;;;;32.90;17.50;;;;;;;-5.30;100.00;101857.50;106679;1279;1003710;-71